PWSweather.com
Personal Weather Stations
Station Observations
IRWAL55
LincentBE

LincentBE

Lat: 50.7128616, Lon: 5.030580299999997

Elevation: 80

Station Type: davis

Latest ConditionsUpdated 2:27:02 PM GMT+01:01 Thursday, Nov 14, 2019
Currently Today's Max Today's Min Today's Average
Temperature 43.5°F6.4°C 44.1°F6.7°C 39.7°F4.3°C 42.4°F5.8°C
Dew Point 40.3°F4.6°C 40.8°F4.9°C 38.1°F3.4°C 39.6°F4.2°C
Winds Calm Calm 4.9 mph -7.9 kmh - - 1.4 mph 2.3 kmh
Wind Gusts -- 6.9 mph11.1 kmh - -
Humidity 88% 96% 84% 90%
Pressure 29.54 in1000.3 mb 29.55 in1000.7 mb 29.42 in996.3 mb -
Hour Temp Dew Point Humidity Winds Wind Gusts Pressure Precip Precip Rate Daily Precip Total
02:27 PM 43.5°F6.4°C 40.3°F4.6°C 88% Calm Calm -- 29.54 in1000.3 mb - 0.00 in0.0 mm 0.00 in0.0 mm
02:22 PM 43.5°F6.4°C 39.9°F4.4°C 87% 0.9 mph S1.4 kmh S -- 29.54 in1000.3 mb - 0.00 in0.0 mm 0.00 in0.0 mm
02:17 PM 43.5°F6.4°C 39.9°F4.4°C 87% 0.9 mph S1.4 kmh S -- 29.53 in1000.0 mb - 0.00 in0.0 mm 0.00 in0.0 mm
02:12 PM 43.7°F6.5°C 40.1°F4.5°C 87% Calm Calm 2.0 mph3.2 kmh 29.53 in1000.0 mb - 0.00 in0.0 mm 0.00 in0.0 mm
02:07 PM 43.9°F6.6°C 40.6°F4.8°C 88% Calm Calm -- 29.53 in1000.0 mb - 0.00 in0.0 mm 0.00 in0.0 mm
02:02 PM 43.9°F6.6°C 40.6°F4.8°C 88% Calm Calm -- 29.53 in1000.0 mb - 0.00 in0.0 mm 0.00 in0.0 mm
01:57 PM 43.9°F6.6°C 40.3°F4.6°C 87% 0.9 mph SSE1.4 kmh SSE -- 29.53 in1000.0 mb - 0.00 in0.0 mm 0.00 in0.0 mm
01:52 PM 43.9°F6.6°C 40.3°F4.6°C 87% 0.9 mph SSE1.4 kmh SSE -- 29.53 in1000.0 mb - 0.00 in0.0 mm 0.00 in0.0 mm
01:47 PM 43.9°F6.6°C 40.3°F4.6°C 87% 0.9 mph S1.4 kmh S 0.9 mph1.4 kmh 29.53 in1000.0 mb - 0.00 in0.0 mm 0.00 in0.0 mm
01:42 PM 43.9°F6.6°C 40.3°F4.6°C 87% 0.9 mph S1.4 kmh S 2.9 mph4.7 kmh 29.53 in1000.0 mb - 0.00 in0.0 mm 0.00 in0.0 mm
01:37 PM 43.9°F6.6°C 39.9°F4.4°C 86% 2.0 mph SSE3.2 kmh SSE 2.0 mph3.2 kmh 29.54 in1000.3 mb - 0.00 in0.0 mm 0.00 in0.0 mm
01:32 PM 43.9°F6.6°C 39.9°F4.4°C 86% 2.0 mph SSE3.2 kmh SSE -- 29.54 in1000.3 mb - 0.00 in0.0 mm 0.00 in0.0 mm
01:27 PM 43.9°F6.6°C 39.9°F4.4°C 86% 2.0 mph S3.2 kmh S 6.0 mph9.7 kmh 29.54 in1000.3 mb - 0.00 in0.0 mm 0.00 in0.0 mm
01:22 PM 43.9°F6.6°C 39.9°F4.4°C 86% 2.0 mph SSE3.2 kmh SSE 0.9 mph1.4 kmh 29.54 in1000.3 mb - 0.00 in0.0 mm 0.00 in0.0 mm
01:17 PM 44.1°F6.7°C 40.8°F4.9°C 88% 0.9 mph S1.4 kmh S 4.0 mph6.4 kmh 29.53 in1000.0 mb - 0.00 in0.0 mm 0.00 in0.0 mm
01:12 PM 43.9°F6.6°C 40.3°F4.6°C 87% 0.9 mph S1.4 kmh S 2.9 mph4.7 kmh 29.53 in1000.0 mb - 0.00 in0.0 mm 0.00 in0.0 mm
01:07 PM 43.9°F6.6°C 40.3°F4.6°C 87% 2.0 mph SSE3.2 kmh SSE 0.9 mph1.4 kmh 29.52 in999.7 mb - 0.00 in0.0 mm 0.00 in0.0 mm
01:02 PM 43.7°F6.5°C 40.1°F4.5°C 87% 2.9 mph SSE4.7 kmh SSE 4.9 mph7.9 kmh 29.53 in1000.0 mb - 0.00 in0.0 mm 0.00 in0.0 mm
12:57 PM 43.7°F6.5°C 40.1°F4.5°C 87% 2.9 mph S4.7 kmh S -- 29.53 in1000.0 mb - 0.00 in0.0 mm 0.00 in0.0 mm
12:52 PM 43.9°F6.6°C 40.3°F4.6°C 87% 2.9 mph S4.7 kmh S 0.9 mph1.4 kmh 29.54 in1000.3 mb - 0.00 in0.0 mm 0.00 in0.0 mm
12:47 PM 43.9°F6.6°C 40.3°F4.6°C 87% 2.9 mph S4.7 kmh S 0.9 mph1.4 kmh 29.55 in1000.7 mb - 0.00 in0.0 mm 0.00 in0.0 mm
12:42 PM 44.1°F6.7°C 40.5°F4.7°C 87% 4.0 mph S6.4 kmh S 2.0 mph3.2 kmh 29.55 in1000.7 mb - 0.00 in0.0 mm 0.00 in0.0 mm
12:37 PM 44.1°F6.7°C 40.5°F4.7°C 87% 4.0 mph SSE6.4 kmh SSE 2.9 mph4.7 kmh 29.54 in1000.3 mb - 0.00 in0.0 mm 0.00 in0.0 mm
12:32 PM 44.1°F6.7°C 40.8°F4.9°C 88% 2.9 mph SSE4.7 kmh SSE 4.9 mph7.9 kmh 29.54 in1000.3 mb - 0.00 in0.0 mm 0.00 in0.0 mm
12:27 PM 43.9°F6.6°C 40.3°F4.6°C 87% 2.9 mph SSE4.7 kmh SSE 4.9 mph7.9 kmh 29.54 in1000.3 mb - 0.00 in0.0 mm 0.00 in0.0 mm
12:22 PM 43.7°F6.5°C 40.1°F4.5°C 87% 4.0 mph SSE6.4 kmh SSE 6.9 mph11.1 kmh 29.54 in1000.3 mb - 0.00 in0.0 mm 0.00 in0.0 mm
12:17 PM 43.7°F6.5°C 39.7°F4.3°C 86% 4.0 mph SSW6.4 kmh SSW 2.0 mph3.2 kmh 29.53 in1000.0 mb - 0.00 in0.0 mm 0.00 in0.0 mm
12:12 PM 43.7°F6.5°C 40.1°F4.5°C 87% 4.0 mph SSE6.4 kmh SSE 2.9 mph4.7 kmh 29.53 in1000.0 mb - 0.00 in0.0 mm 0.00 in0.0 mm
12:07 PM 43.5°F6.4°C 39.9°F4.4°C 87% 4.0 mph SSE6.4 kmh SSE 2.0 mph3.2 kmh 29.53 in1000.0 mb - 0.00 in0.0 mm 0.00 in0.0 mm
12:02 PM 43.3°F6.3°C 40.1°F4.5°C 88% 2.9 mph S4.7 kmh S 2.9 mph4.7 kmh 29.53 in1000.0 mb - 0.00 in0.0 mm 0.00 in0.0 mm
11:57 AM 43.3°F6.3°C 40.1°F4.5°C 88% 2.9 mph S4.7 kmh S 2.0 mph3.2 kmh 29.53 in1000.0 mb - 0.00 in0.0 mm 0.00 in0.0 mm
11:52 AM 43.3°F6.3°C 40.1°F4.5°C 88% 2.9 mph S4.7 kmh S 4.0 mph6.4 kmh 29.53 in1000.0 mb - 0.00 in0.0 mm 0.00 in0.0 mm
11:47 AM 43.3°F6.3°C 40.1°F4.5°C 88% 2.9 mph S4.7 kmh S 4.0 mph6.4 kmh 29.53 in1000.0 mb - 0.00 in0.0 mm 0.00 in0.0 mm
11:42 AM 43.3°F6.3°C 40.1°F4.5°C 88% 2.9 mph S4.7 kmh S 4.0 mph6.4 kmh 29.53 in1000.0 mb - 0.00 in0.0 mm 0.00 in0.0 mm
11:37 AM 43.3°F6.3°C 40.1°F4.5°C 88% 2.9 mph S4.7 kmh S 2.9 mph4.7 kmh 29.53 in1000.0 mb - 0.00 in0.0 mm 0.00 in0.0 mm
11:32 AM 43.3°F6.3°C 39.7°F4.3°C 87% 2.9 mph S4.7 kmh S 2.9 mph4.7 kmh 29.53 in1000.0 mb - 0.00 in0.0 mm 0.00 in0.0 mm
11:27 AM 43.3°F6.3°C 39.7°F4.3°C 87% 4.0 mph S6.4 kmh S 0.9 mph1.4 kmh 29.53 in1000.0 mb - 0.00 in0.0 mm 0.00 in0.0 mm
11:22 AM 43.5°F6.4°C 39.9°F4.4°C 87% 2.9 mph S4.7 kmh S 6.0 mph9.7 kmh 29.53 in1000.0 mb - 0.00 in0.0 mm 0.00 in0.0 mm
11:17 AM 43.5°F6.4°C 39.9°F4.4°C 87% 2.9 mph S4.7 kmh S 2.9 mph4.7 kmh 29.53 in1000.0 mb - 0.00 in0.0 mm 0.00 in0.0 mm
11:12 AM 43.5°F6.4°C 39.9°F4.4°C 87% 2.9 mph SSW4.7 kmh SSW 2.0 mph3.2 kmh 29.53 in1000.0 mb - 0.00 in0.0 mm 0.00 in0.0 mm
11:07 AM 43.3°F6.3°C 39.7°F4.3°C 87% 2.9 mph S4.7 kmh S 4.0 mph6.4 kmh 29.53 in1000.0 mb - 0.00 in0.0 mm 0.00 in0.0 mm
11:02 AM 43.5°F6.4°C 39.9°F4.4°C 87% 4.0 mph S6.4 kmh S 2.9 mph4.7 kmh 29.53 in1000.0 mb - 0.00 in0.0 mm 0.00 in0.0 mm
10:57 AM 43.5°F6.4°C 39.9°F4.4°C 87% 4.9 mph S7.9 kmh S 4.0 mph6.4 kmh 29.52 in999.7 mb - 0.00 in0.0 mm 0.00 in0.0 mm
10:52 AM 43.5°F6.4°C 39.9°F4.4°C 87% 4.9 mph S7.9 kmh S 4.9 mph7.9 kmh 29.52 in999.7 mb - 0.00 in0.0 mm 0.00 in0.0 mm
10:47 AM 43.5°F6.4°C 39.9°F4.4°C 87% 4.0 mph S6.4 kmh S 2.9 mph4.7 kmh 29.52 in999.7 mb - 0.00 in0.0 mm 0.00 in0.0 mm
10:42 AM 43.5°F6.4°C 39.9°F4.4°C 87% 2.9 mph SE4.7 kmh SE 6.0 mph9.7 kmh 29.52 in999.7 mb - 0.00 in0.0 mm 0.00 in0.0 mm
10:37 AM 43.5°F6.4°C 40.3°F4.6°C 88% 2.9 mph S4.7 kmh S 2.0 mph3.2 kmh 29.51 in999.3 mb - 0.00 in0.0 mm 0.00 in0.0 mm
10:32 AM 43.5°F6.4°C 40.3°F4.6°C 88% 2.9 mph S4.7 kmh S 4.9 mph7.9 kmh 29.51 in999.3 mb - 0.00 in0.0 mm 0.00 in0.0 mm
10:27 AM 43.5°F6.4°C 40.3°F4.6°C 88% 2.9 mph S4.7 kmh S 4.0 mph6.4 kmh 29.51 in999.3 mb - 0.00 in0.0 mm 0.00 in0.0 mm
10:22 AM 43.3°F6.3°C 39.7°F4.3°C 87% 2.9 mph S4.7 kmh S 2.0 mph3.2 kmh 29.51 in999.3 mb - 0.00 in0.0 mm 0.00 in0.0 mm
10:17 AM 43.3°F6.3°C 39.7°F4.3°C 87% 2.9 mph S4.7 kmh S 0.9 mph1.4 kmh 29.51 in999.3 mb - 0.00 in0.0 mm 0.00 in0.0 mm
10:12 AM 43.3°F6.3°C 39.7°F4.3°C 87% 2.9 mph S4.7 kmh S 4.0 mph6.4 kmh 29.51 in999.3 mb - 0.00 in0.0 mm 0.00 in0.0 mm
10:07 AM 43.3°F6.3°C 40.1°F4.5°C 88% 2.9 mph S4.7 kmh S 2.9 mph4.7 kmh 29.51 in999.3 mb - 0.00 in0.0 mm 0.00 in0.0 mm
10:02 AM 43.3°F6.3°C 40.1°F4.5°C 88% 2.0 mph SSW3.2 kmh SSW 2.9 mph4.7 kmh 29.50 in999.0 mb - 0.00 in0.0 mm 0.00 in0.0 mm
09:57 AM 43.3°F6.3°C 40.1°F4.5°C 88% 2.9 mph S4.7 kmh S 0.9 mph1.4 kmh 29.50 in999.0 mb - 0.00 in0.0 mm 0.00 in0.0 mm
09:52 AM 43.3°F6.3°C 40.1°F4.5°C 88% 2.0 mph S3.2 kmh S 2.9 mph4.7 kmh 29.49 in998.6 mb - 0.00 in0.0 mm 0.00 in0.0 mm
09:47 AM 43.3°F6.3°C 40.1°F4.5°C 88% 2.0 mph S3.2 kmh S 2.0 mph3.2 kmh 29.49 in998.6 mb - 0.00 in0.0 mm 0.00 in0.0 mm
09:42 AM 43.3°F6.3°C 40.1°F4.5°C 88% 2.0 mph S3.2 kmh S 2.9 mph4.7 kmh 29.49 in998.6 mb - 0.00 in0.0 mm 0.00 in0.0 mm
09:37 AM 43.5°F6.4°C 39.9°F4.4°C 87% 2.0 mph SSE3.2 kmh SSE 2.0 mph3.2 kmh 29.49 in998.6 mb - 0.00 in0.0 mm 0.00 in0.0 mm
09:32 AM 43.5°F6.4°C 39.9°F4.4°C 87% 2.0 mph S3.2 kmh S 0.9 mph1.4 kmh 29.49 in998.6 mb - 0.00 in0.0 mm 0.00 in0.0 mm
09:27 AM 43.9°F6.6°C 39.9°F4.4°C 86% 2.0 mph S3.2 kmh S -- 29.49 in998.6 mb - 0.00 in0.0 mm 0.00 in0.0 mm
09:22 AM 43.9°F6.6°C 39.7°F4.3°C 85% 2.0 mph SSW3.2 kmh SSW -- 29.49 in998.6 mb - 0.00 in0.0 mm 0.00 in0.0 mm
09:17 AM 43.9°F6.6°C 39.4°F4.1°C 84% 2.9 mph S4.7 kmh S 2.0 mph3.2 kmh 29.49 in998.6 mb - 0.00 in0.0 mm 0.00 in0.0 mm
09:12 AM 43.9°F6.6°C 39.7°F4.3°C 85% 2.0 mph SW3.2 kmh SW 0.9 mph1.4 kmh 29.48 in998.3 mb - 0.00 in0.0 mm 0.00 in0.0 mm
09:07 AM 43.9°F6.6°C 39.4°F4.1°C 84% 2.0 mph S3.2 kmh S -- 29.48 in998.3 mb - 0.00 in0.0 mm 0.00 in0.0 mm
09:02 AM 43.9°F6.6°C 39.4°F4.1°C 84% 2.0 mph S3.2 kmh S 0.9 mph1.4 kmh 29.48 in998.3 mb - 0.00 in0.0 mm 0.00 in0.0 mm
08:57 AM 43.5°F6.4°C 39.0°F3.9°C 84% 2.0 mph S3.2 kmh S 0.9 mph1.4 kmh 29.48 in998.3 mb - 0.00 in0.0 mm 0.00 in0.0 mm
08:52 AM 43.5°F6.4°C 39.4°F4.1°C 85% 0.9 mph S1.4 kmh S 2.9 mph4.7 kmh 29.47 in998.0 mb - 0.00 in0.0 mm 0.00 in0.0 mm
08:47 AM 43.3°F6.3°C 39.2°F4.0°C 85% 0.9 mph S1.4 kmh S 0.9 mph1.4 kmh 29.47 in998.0 mb - 0.00 in0.0 mm 0.00 in0.0 mm
08:42 AM 43.3°F6.3°C 39.2°F4.0°C 85% 0.9 mph S1.4 kmh S 2.9 mph4.7 kmh 29.46 in997.6 mb - 0.00 in0.0 mm 0.00 in0.0 mm
08:37 AM 43.2°F6.2°C 39.0°F3.9°C 85% 2.0 mph S3.2 kmh S 0.9 mph1.4 kmh 29.47 in998.0 mb - 0.00 in0.0 mm 0.00 in0.0 mm
08:32 AM 43.2°F6.2°C 39.0°F3.9°C 85% 0.9 mph SW1.4 kmh SW 2.0 mph3.2 kmh 29.47 in998.0 mb - 0.00 in0.0 mm 0.00 in0.0 mm
08:27 AM 43.2°F6.2°C 39.0°F3.9°C 85% 0.9 mph SW1.4 kmh SW 0.9 mph1.4 kmh 29.46 in997.6 mb - 0.00 in0.0 mm 0.00 in0.0 mm
08:22 AM 43.0°F6.1°C 38.8°F3.8°C 85% 2.0 mph SW3.2 kmh SW -- 29.46 in997.6 mb - 0.00 in0.0 mm 0.00 in0.0 mm
08:17 AM 43.0°F6.1°C 38.8°F3.8°C 85% 2.0 mph SSW3.2 kmh SSW 2.9 mph4.7 kmh 29.46 in997.6 mb - 0.00 in0.0 mm 0.00 in0.0 mm
08:12 AM 43.0°F6.1°C 38.8°F3.8°C 85% 0.9 mph SSW1.4 kmh SSW 2.9 mph4.7 kmh 29.46 in997.6 mb - 0.00 in0.0 mm 0.00 in0.0 mm
08:07 AM 43.0°F6.1°C 38.8°F3.8°C 85% 0.9 mph NW1.4 kmh NW -- 29.46 in997.6 mb - 0.00 in0.0 mm 0.00 in0.0 mm
08:02 AM 43.0°F6.1°C 38.8°F3.8°C 85% 0.9 mph SW1.4 kmh SW 0.9 mph1.4 kmh 29.46 in997.6 mb - 0.00 in0.0 mm 0.00 in0.0 mm
07:57 AM 43.2°F6.2°C 39.0°F3.9°C 85% 0.9 mph WSW1.4 kmh WSW 2.0 mph3.2 kmh 29.46 in997.6 mb - 0.00 in0.0 mm 0.00 in0.0 mm
07:52 AM 43.2°F6.2°C 39.0°F3.9°C 85% 2.0 mph SW3.2 kmh SW -- 29.46 in997.6 mb - 0.00 in0.0 mm 0.00 in0.0 mm
07:47 AM 43.2°F6.2°C 39.0°F3.9°C 85% 2.0 mph S3.2 kmh S 4.0 mph6.4 kmh 29.45 in997.3 mb - 0.00 in0.0 mm 0.00 in0.0 mm
07:42 AM 43.2°F6.2°C 39.0°F3.9°C 85% 2.0 mph S3.2 kmh S 2.0 mph3.2 kmh 29.45 in997.3 mb - 0.00 in0.0 mm 0.00 in0.0 mm
07:37 AM 43.2°F6.2°C 39.0°F3.9°C 85% 2.0 mph SW3.2 kmh SW 2.0 mph3.2 kmh 29.45 in997.3 mb - 0.00 in0.0 mm 0.00 in0.0 mm
07:32 AM 43.2°F6.2°C 39.0°F3.9°C 85% 0.9 mph S1.4 kmh S 2.0 mph3.2 kmh 29.45 in997.3 mb - 0.00 in0.0 mm 0.00 in0.0 mm
07:27 AM 43.2°F6.2°C 39.0°F3.9°C 85% 2.0 mph S3.2 kmh S 2.0 mph3.2 kmh 29.45 in997.3 mb - 0.00 in0.0 mm 0.00 in0.0 mm
07:22 AM 43.3°F6.3°C 39.2°F4.0°C 85% 2.0 mph SSW3.2 kmh SSW -- 29.45 in997.3 mb - 0.00 in0.0 mm 0.00 in0.0 mm
07:17 AM 43.2°F6.2°C 39.0°F3.9°C 85% 2.0 mph SSW3.2 kmh SSW 2.9 mph4.7 kmh 29.45 in997.3 mb - 0.00 in0.0 mm 0.00 in0.0 mm
07:12 AM 43.2°F6.2°C 39.0°F3.9°C 85% 2.0 mph S3.2 kmh S 0.9 mph1.4 kmh 29.45 in997.3 mb - 0.00 in0.0 mm 0.00 in0.0 mm
07:07 AM 43.2°F6.2°C 39.2°F4.0°C 86% 2.0 mph S3.2 kmh S 2.0 mph3.2 kmh 29.45 in997.3 mb - 0.00 in0.0 mm 0.00 in0.0 mm
07:02 AM 43.2°F6.2°C 39.2°F4.0°C 86% 2.0 mph S3.2 kmh S -- 29.45 in997.3 mb - 0.00 in0.0 mm 0.00 in0.0 mm
06:57 AM 43.2°F6.2°C 39.2°F4.0°C 86% 2.0 mph S3.2 kmh S 2.0 mph3.2 kmh 29.44 in997.0 mb - 0.00 in0.0 mm 0.00 in0.0 mm
06:52 AM 43.0°F6.1°C 39.4°F4.1°C 87% 2.0 mph SSW3.2 kmh SSW 2.9 mph4.7 kmh 29.44 in997.0 mb - 0.00 in0.0 mm 0.00 in0.0 mm
06:47 AM 43.0°F6.1°C 39.4°F4.1°C 87% 2.0 mph S3.2 kmh S -- 29.44 in997.0 mb - 0.00 in0.0 mm 0.00 in0.0 mm
06:42 AM 43.0°F6.1°C 39.4°F4.1°C 87% 2.0 mph S3.2 kmh S -- 29.44 in997.0 mb - 0.00 in0.0 mm 0.00 in0.0 mm
06:37 AM 42.8°F6.0°C 39.2°F4.0°C 87% 0.9 mph SW1.4 kmh SW 2.0 mph3.2 kmh 29.44 in997.0 mb - 0.00 in0.0 mm 0.00 in0.0 mm
06:32 AM 42.8°F6.0°C 39.6°F4.2°C 88% 2.0 mph S3.2 kmh S 4.0 mph6.4 kmh 29.44 in997.0 mb - 0.00 in0.0 mm 0.00 in0.0 mm
06:27 AM 42.6°F5.9°C 39.4°F4.1°C 88% 2.0 mph S3.2 kmh S 2.0 mph3.2 kmh 29.43 in996.6 mb - 0.00 in0.0 mm 0.00 in0.0 mm
06:22 AM 42.6°F5.9°C 39.4°F4.1°C 88% 2.0 mph SSW3.2 kmh SSW 2.0 mph3.2 kmh 29.43 in996.6 mb - 0.00 in0.0 mm 0.00 in0.0 mm
06:17 AM 42.6°F5.9°C 39.4°F4.1°C 88% 2.0 mph SSW3.2 kmh SSW 0.9 mph1.4 kmh 29.43 in996.6 mb - 0.00 in0.0 mm 0.00 in0.0 mm
06:12 AM 42.6°F5.9°C 39.6°F4.2°C 89% 2.0 mph SSW3.2 kmh SSW 0.9 mph1.4 kmh 29.43 in996.6 mb - 0.00 in0.0 mm 0.00 in0.0 mm
06:07 AM 42.6°F5.9°C 39.6°F4.2°C 89% 2.9 mph SSE4.7 kmh SSE 4.0 mph6.4 kmh 29.43 in996.6 mb - 0.00 in0.0 mm 0.00 in0.0 mm
06:02 AM 42.4°F5.8°C 39.7°F4.3°C 90% 2.0 mph S3.2 kmh S 2.9 mph4.7 kmh 29.43 in996.6 mb - 0.00 in0.0 mm 0.00 in0.0 mm
05:57 AM 42.4°F5.8°C 39.7°F4.3°C 90% 2.0 mph S3.2 kmh S 2.9 mph4.7 kmh 29.43 in996.6 mb - 0.00 in0.0 mm 0.00 in0.0 mm
05:52 AM 42.3°F5.7°C 39.7°F4.3°C 91% 0.9 mph SW1.4 kmh SW 0.9 mph1.4 kmh 29.43 in996.6 mb - 0.00 in0.0 mm 0.00 in0.0 mm
05:47 AM 42.3°F5.7°C 39.7°F4.3°C 91% 0.9 mph SW1.4 kmh SW 2.0 mph3.2 kmh 29.43 in996.6 mb - 0.00 in0.0 mm 0.00 in0.0 mm
05:42 AM 42.1°F5.6°C 39.9°F4.4°C 92% 0.9 mph SSW1.4 kmh SSW 2.0 mph3.2 kmh 29.42 in996.3 mb - 0.00 in0.0 mm 0.00 in0.0 mm
05:37 AM 42.1°F5.6°C 39.9°F4.4°C 92% Calm Calm 2.0 mph3.2 kmh 29.42 in996.3 mb - 0.00 in0.0 mm 0.00 in0.0 mm
05:32 AM 41.9°F5.5°C 39.7°F4.3°C 92% 0.9 mph WSW1.4 kmh WSW -- 29.42 in996.3 mb - 0.00 in0.0 mm 0.00 in0.0 mm
05:27 AM 41.7°F5.4°C 39.9°F4.4°C 93% Calm Calm -- 29.42 in996.3 mb - 0.00 in0.0 mm 0.00 in0.0 mm
05:22 AM 41.7°F5.4°C 39.9°F4.4°C 93% Calm Calm -- 29.43 in996.6 mb - 0.00 in0.0 mm 0.00 in0.0 mm
05:17 AM 41.7°F5.4°C 39.9°F4.4°C 93% Calm Calm -- 29.43 in996.6 mb - 0.00 in0.0 mm 0.00 in0.0 mm
05:12 AM 41.5°F5.3°C 39.9°F4.4°C 94% Calm Calm -- 29.43 in996.6 mb - 0.00 in0.0 mm 0.00 in0.0 mm
05:07 AM 41.5°F5.3°C 39.9°F4.4°C 94% Calm Calm -- 29.43 in996.6 mb - 0.00 in0.0 mm 0.00 in0.0 mm
05:02 AM 41.5°F5.3°C 39.9°F4.4°C 94% Calm Calm -- 29.43 in996.6 mb - 0.00 in0.0 mm 0.00 in0.0 mm
04:57 AM 41.4°F5.2°C 39.7°F4.3°C 94% Calm Calm -- 29.43 in996.6 mb - 0.00 in0.0 mm 0.00 in0.0 mm
04:52 AM 41.2°F5.1°C 39.9°F4.4°C 95% 0.9 mph S1.4 kmh S -- 29.43 in996.6 mb - 0.00 in0.0 mm 0.00 in0.0 mm
04:47 AM 40.8°F4.9°C 39.6°F4.2°C 95% Calm Calm 0.9 mph1.4 kmh 29.43 in996.6 mb - 0.00 in0.0 mm 0.00 in0.0 mm
04:42 AM 40.5°F4.7°C 39.2°F4.0°C 95% Calm Calm 0.9 mph1.4 kmh 29.43 in996.6 mb - 0.00 in0.0 mm 0.00 in0.0 mm
04:37 AM 39.9°F4.4°C 38.7°F3.7°C 95% Calm Calm -- 29.44 in997.0 mb - 0.00 in0.0 mm 0.00 in0.0 mm
04:32 AM 39.7°F4.3°C 38.1°F3.4°C 94% Calm Calm -- 29.44 in997.0 mb - 0.00 in0.0 mm 0.00 in0.0 mm
04:27 AM 39.7°F4.3°C 38.1°F3.4°C 94% Calm Calm -- 29.44 in997.0 mb - 0.00 in0.0 mm 0.00 in0.0 mm
04:22 AM 39.7°F4.3°C 38.1°F3.4°C 94% Calm Calm -- 29.44 in997.0 mb - 0.00 in0.0 mm 0.00 in0.0 mm
04:17 AM 39.9°F4.4°C 38.3°F3.5°C 94% Calm Calm -- 29.44 in997.0 mb - 0.00 in0.0 mm 0.00 in0.0 mm
04:12 AM 39.9°F4.4°C 38.1°F3.4°C 93% Calm Calm -- 29.44 in997.0 mb - 0.00 in0.0 mm 0.00 in0.0 mm
04:07 AM 40.3°F4.6°C 38.7°F3.7°C 94% Calm Calm -- 29.44 in997.0 mb - 0.00 in0.0 mm 0.00 in0.0 mm
04:02 AM 40.3°F4.6°C 38.5°F3.6°C 93% Calm Calm -- 29.44 in997.0 mb - 0.00 in0.0 mm 0.00 in0.0 mm
03:57 AM 40.5°F4.7°C 38.7°F3.7°C 93% Calm Calm -- 29.44 in997.0 mb - 0.00 in0.0 mm 0.00 in0.0 mm
03:52 AM 40.6°F4.8°C 38.8°F3.8°C 93% Calm Calm -- 29.44 in997.0 mb - 0.00 in0.0 mm 0.00 in0.0 mm
03:47 AM 41.0°F5.0°C 39.2°F4.0°C 93% Calm Calm -- 29.44 in997.0 mb - 0.00 in0.0 mm 0.00 in0.0 mm
03:42 AM 41.2°F5.1°C 39.4°F4.1°C 93% Calm Calm -- 29.44 in997.0 mb - 0.00 in0.0 mm 0.00 in0.0 mm
03:37 AM 41.4°F5.2°C 39.7°F4.3°C 94% Calm Calm -- 29.45 in997.3 mb - 0.00 in0.0 mm 0.00 in0.0 mm
03:32 AM 41.5°F5.3°C 39.9°F4.4°C 94% Calm Calm -- 29.45 in997.3 mb - 0.00 in0.0 mm 0.00 in0.0 mm
03:27 AM 41.5°F5.3°C 39.9°F4.4°C 94% Calm Calm -- 29.45 in997.3 mb - 0.00 in0.0 mm 0.00 in0.0 mm
03:22 AM 41.5°F5.3°C 39.9°F4.4°C 94% Calm Calm 0.9 mph1.4 kmh 29.46 in997.6 mb - 0.00 in0.0 mm 0.00 in0.0 mm
03:17 AM 41.7°F5.4°C 40.1°F4.5°C 94% Calm Calm -- 29.46 in997.6 mb - 0.00 in0.0 mm 0.00 in0.0 mm
03:12 AM 41.9°F5.5°C 40.6°F4.8°C 95% Calm Calm -- 29.46 in997.6 mb - 0.00 in0.0 mm 0.00 in0.0 mm
03:07 AM 41.9°F5.5°C 40.6°F4.8°C 95% Calm Calm -- 29.46 in997.6 mb - 0.00 in0.0 mm 0.00 in0.0 mm
03:02 AM 41.7°F5.4°C 40.5°F4.7°C 95% Calm Calm -- 29.46 in997.6 mb - 0.00 in0.0 mm 0.00 in0.0 mm
02:57 AM 41.5°F5.3°C 40.3°F4.6°C 95% Calm Calm -- 29.46 in997.6 mb - 0.00 in0.0 mm 0.00 in0.0 mm
02:52 AM 41.4°F5.2°C 40.3°F4.6°C 96% Calm Calm 0.9 mph1.4 kmh 29.46 in997.6 mb - 0.00 in0.0 mm 0.00 in0.0 mm
02:47 AM 41.0°F5.0°C 39.9°F4.4°C 96% Calm Calm -- 29.46 in997.6 mb - 0.00 in0.0 mm 0.00 in0.0 mm
02:42 AM 40.6°F4.8°C 39.6°F4.2°C 96% Calm Calm -- 29.47 in998.0 mb - 0.00 in0.0 mm 0.00 in0.0 mm
02:37 AM 40.3°F4.6°C 39.0°F3.9°C 95% Calm Calm -- 29.47 in998.0 mb - 0.00 in0.0 mm 0.00 in0.0 mm
02:22 AM 40.3°F4.6°C 39.0°F3.9°C 95% Calm Calm -- 29.47 in998.0 mb - 0.00 in0.0 mm 0.00 in0.0 mm
02:17 AM 40.5°F4.7°C 39.2°F4.0°C 95% Calm Calm -- 29.47 in998.0 mb - 0.00 in0.0 mm 0.00 in0.0 mm
02:12 AM 40.5°F4.7°C 39.2°F4.0°C 95% Calm Calm -- 29.47 in998.0 mb - 0.00 in0.0 mm 0.00 in0.0 mm
02:07 AM 40.6°F4.8°C 39.4°F4.1°C 95% Calm Calm -- 29.47 in998.0 mb - 0.00 in0.0 mm 0.00 in0.0 mm
02:02 AM 40.6°F4.8°C 39.4°F4.1°C 95% Calm Calm -- 29.48 in998.3 mb - 0.00 in0.0 mm 0.00 in0.0 mm
01:57 AM 40.8°F4.9°C 39.6°F4.2°C 95% Calm Calm -- 29.48 in998.3 mb - 0.00 in0.0 mm 0.00 in0.0 mm
01:52 AM 40.8°F4.9°C 39.6°F4.2°C 95% Calm Calm -- 29.48 in998.3 mb - 0.00 in0.0 mm 0.00 in0.0 mm
01:47 AM 40.6°F4.8°C 39.4°F4.1°C 95% Calm Calm -- 29.48 in998.3 mb - 0.00 in0.0 mm 0.00 in0.0 mm
01:42 AM 40.5°F4.7°C 39.2°F4.0°C 95% Calm Calm -- 29.48 in998.3 mb - 0.00 in0.0 mm 0.00 in0.0 mm
01:37 AM 40.5°F4.7°C 39.2°F4.0°C 95% Calm Calm -- 29.48 in998.3 mb - 0.00 in0.0 mm 0.00 in0.0 mm
01:32 AM 40.1°F4.5°C 38.8°F3.8°C 95% Calm Calm -- 29.47 in998.0 mb - 0.00 in0.0 mm 0.00 in0.0 mm
01:27 AM 39.9°F4.4°C 38.7°F3.7°C 95% Calm Calm -- 29.48 in998.3 mb - 0.00 in0.0 mm 0.00 in0.0 mm
01:22 AM 40.3°F4.6°C 38.7°F3.7°C 94% Calm Calm -- 29.48 in998.3 mb - 0.00 in0.0 mm 0.00 in0.0 mm
01:17 AM 40.5°F4.7°C 38.8°F3.8°C 94% Calm Calm -- 29.48 in998.3 mb - 0.00 in0.0 mm 0.00 in0.0 mm
01:12 AM 40.5°F4.7°C 38.8°F3.8°C 94% Calm Calm -- 29.48 in998.3 mb - 0.00 in0.0 mm 0.00 in0.0 mm
01:07 AM 40.6°F4.8°C 39.4°F4.1°C 95% Calm Calm -- 29.49 in998.6 mb - 0.00 in0.0 mm 0.00 in0.0 mm
01:02 AM 40.6°F4.8°C 39.4°F4.1°C 95% 0.9 mph S1.4 kmh S -- 29.49 in998.6 mb - 0.00 in0.0 mm 0.06 in1.5 mm
12:57 AM 40.6°F4.8°C 39.4°F4.1°C 95% 0.9 mph S1.4 kmh S 0.9 mph1.4 kmh 29.49 in998.6 mb - 0.00 in0.0 mm 0.06 in1.5 mm
12:52 AM 40.6°F4.8°C 39.4°F4.1°C 95% 0.9 mph S1.4 kmh S -- 29.49 in998.6 mb - 0.00 in0.0 mm 0.06 in1.5 mm
12:47 AM 40.6°F4.8°C 39.0°F3.9°C 94% Calm Calm -- 29.49 in998.6 mb - 0.00 in0.0 mm 0.06 in1.5 mm
12:42 AM 40.8°F4.9°C 39.2°F4.0°C 94% Calm Calm -- 29.49 in998.6 mb - 0.00 in0.0 mm 0.06 in1.5 mm
12:37 AM 40.8°F4.9°C 39.2°F4.0°C 94% Calm Calm -- 29.49 in998.6 mb - 0.00 in0.0 mm 0.06 in1.5 mm
12:32 AM 41.0°F5.0°C 39.4°F4.1°C 94% Calm Calm -- 29.49 in998.6 mb - 0.00 in0.0 mm 0.06 in1.5 mm
12:27 AM 41.2°F5.1°C 39.6°F4.2°C 94% Calm Calm -- 29.49 in998.6 mb - 0.00 in0.0 mm 0.06 in1.5 mm
12:22 AM 41.2°F5.1°C 39.6°F4.2°C 94% Calm Calm -- 29.49 in998.6 mb - 0.00 in0.0 mm 0.06 in1.5 mm
12:17 AM 41.4°F5.2°C 39.7°F4.3°C 94% 0.9 mph S1.4 kmh S 0.9 mph1.4 kmh 29.49 in998.6 mb - 0.00 in0.0 mm 0.06 in1.5 mm
12:12 AM 41.5°F5.3°C 39.9°F4.4°C 94% 0.9 mph S1.4 kmh S 0.9 mph1.4 kmh 29.49 in998.6 mb - 0.00 in0.0 mm 0.06 in1.5 mm
12:07 AM 41.7°F5.4°C 40.1°F4.5°C 94% Calm Calm -- 29.49 in998.6 mb - 0.00 in0.0 mm 0.06 in1.5 mm
12:02 AM 41.7°F5.4°C 40.1°F4.5°C 94% Calm Calm -- 29.49 in998.6 mb - 0.00 in0.0 mm 0.06 in1.5 mm